Time;durP1;ratioP1;P1;durP2;ratioP2;P2;SDS_P1;SDS_P2;PMS_P1;PMS_P2;Temp;Humidity;BMP_temperature;BMP_pressure;BME280_temperature;BME280_humidity;BME280_pressure;Samples;Min_cycle;Max_cycle;Signal;HPM_P1;HPM_P2
2022/03/18 00:00:43;;;;;;;6.25;3.63;;;6.70;62.40;;;;;;5070348;28;20041;-46
2022/03/18 00:03:13;;;;;;;4.68;3.20;;;6.60;62.40;;;;;;5064450;28;20094;-49
2022/03/18 00:05:41;;;;;;;6.10;3.50;;;6.60;62.40;;;;;;5054116;28;20578;-47
2022/03/18 00:08:10;;;;;;;4.78;3.47;;;6.60;62.40;;;;;;5066490;28;20040;-46
2022/03/18 00:10:37;;;;;;;6.85;3.80;;;6.60;62.30;;;;;;5059911;28;20040;-46
2022/03/18 00:13:05;;;;;;;6.13;4.00;;;6.50;62.30;;;;;;5049780;28;20037;-47
2022/03/18 00:15:31;;;;;;;5.85;3.90;;;6.50;62.30;;;;;;5047061;28;20037;-46
2022/03/18 00:17:58;;;;;;;4.35;3.60;;;6.50;62.40;;;;;;5053785;28;20029;-47
2022/03/18 00:20:25;;;;;;;6.07;3.38;;;6.40;62.40;;;;;;5070079;28;20090;-45
2022/03/18 00:22:52;;;;;;;5.47;3.53;;;6.40;62.40;;;;;;5062212;28;20033;-48
2022/03/18 00:25:19;;;;;;;5.63;3.47;;;6.40;62.50;;;;;;5051279;28;20041;-47
2022/03/18 00:27:46;;;;;;;7.05;3.97;;;6.40;62.40;;;;;;5068888;28;20044;-47
2022/03/18 00:30:16;;;;;;;6.15;3.63;;;6.30;63.10;;;;;;5044899;28;20045;-47
2022/03/18 00:32:44;;;;;;;3.85;3.13;;;6.30;62.40;;;;;;5037358;28;20076;-46
2022/03/18 00:35:31;;;;;;;4.05;2.97;;;6.30;62.40;;;;;;5045365;28;20064;-47
2022/03/18 00:38:02;;;;;;;6.63;3.80;;;6.20;62.40;;;;;;5053179;28;20145;-47
2022/03/18 00:40:28;;;;;;;7.70;3.72;;;6.20;62.40;;;;;;5061245;28;20045;-46
2022/03/18 00:42:56;;;;;;;7.15;3.42;;;6.20;62.40;;;;;;5053878;28;20070;-47
2022/03/18 00:45:25;;;;;;;4.55;2.95;;;6.20;62.50;;;;;;5065765;28;20083;-46
2022/03/18 00:53:24;;;;;;;4.93;3.30;;;6.10;62.60;;;;;;5061495;28;20048;-47
2022/03/18 00:55:53;;;;;;;6.97;4.07;;;6.00;62.60;;;;;;5065580;28;20120;-47
2022/03/18 00:58:20;;;;;;;5.70;4.20;;;6.00;62.60;;;;;;5073742;28;20052;-48
2022/03/18 01:00:46;;;;;;;4.68;3.50;;;6.00;62.70;;;;;;5057921;28;20095;-47
2022/03/18 01:03:15;;;;;;;3.72;2.72;;;6.00;62.70;;;;;;5045996;28;20048;-49
2022/03/18 01:05:43;;;;;;;6.88;4.05;;;6.00;62.70;;;;;;5053297;28;20055;-46
2022/03/18 01:08:11;;;;;;;5.13;3.60;;;5.90;62.70;;;;;;5054027;28;20037;-47
2022/03/18 01:10:40;;;;;;;5.07;3.67;;;5.90;62.80;;;;;;5049835;28;20091;-46
2022/03/18 01:13:07;;;;;;;4.97;3.58;;;5.90;62.80;;;;;;5070974;28;20041;-47
2022/03/18 01:15:38;;;;;;;5.47;3.83;;;5.90;62.80;;;;;;5066074;28;20037;-46
2022/03/18 01:18:04;;;;;;;7.80;3.88;;;5.90;62.80;;;;;;5052888;28;20051;-48
2022/03/18 01:20:31;;;;;;;5.43;3.85;;;5.80;62.80;;;;;;5055643;28;20401;-47
2022/03/18 01:22:58;;;;;;;5.75;3.72;;;5.80;62.70;;;;;;5060513;28;20520;-47
2022/03/18 01:25:25;;;;;;;4.50;3.67;;;5.80;62.70;;;;;;5073029;28;20048;-47
2022/03/18 01:27:52;;;;;;;6.28;3.80;;;5.70;62.70;;;;;;5063654;28;20038;-48
2022/03/18 01:30:19;;;;;;;3.85;3.45;;;5.70;62.80;;;;;;5063033;28;20048;-47
2022/03/18 01:32:49;;;;;;;5.80;3.92;;;5.70;62.80;;;;;;5072822;28;20102;-47
2022/03/18 01:35:16;;;;;;;6.57;3.35;;;5.70;62.90;;;;;;5061137;28;20037;-47
2022/03/18 01:37:42;;;;;;;5.07;3.55;;;5.70;62.90;;;;;;5062611;28;20033;-46
2022/03/18 01:40:10;;;;;;;5.50;4.07;;;5.60;62.80;;;;;;5053578;28;20044;-46
2022/03/18 01:42:37;;;;;;;5.55;3.72;;;5.60;62.80;;;;;;5069467;28;20048;-47
2022/03/18 01:45:04;;;;;;;4.25;3.03;;;5.70;62.90;;;;;;5073072;28;20044;-45
2022/03/18 01:47:31;;;;;;;4.65;3.03;;;5.60;62.90;;;;;;5063027;28;20452;-47
2022/03/18 01:49:58;;;;;;;6.05;3.45;;;5.60;62.90;;;;;;5059219;28;20411;-47
2022/03/18 01:52:25;;;;;;;9.68;3.78;;;5.60;62.90;;;;;;5072072;28;20043;-46
2022/03/18 01:54:55;;;;;;;4.13;3.40;;;5.50;62.90;;;;;;5072311;28;20098;-46
2022/03/18 01:57:26;;;;;;;5.03;3.28;;;5.50;63.00;;;;;;5046747;28;20098;-47
2022/03/18 02:00:04;;;;;;;4.90;3.65;;;5.50;63.00;;;;;;5062965;28;20040;-46
2022/03/18 02:02:37;;;;;;;3.35;3.05;;;5.50;63.20;;;;;;5072564;28;20057;-46
2022/03/18 02:05:06;;;;;;;7.28;3.33;;;5.40;62.90;;;;;;5063239;28;20132;-47
2022/03/18 02:07:33;;;;;;;5.82;3.50;;;5.40;63.00;;;;;;5065399;28;20037;-47
2022/03/18 02:10:03;;;;;;;5.55;2.88;;;5.40;63.00;;;;;;5051451;28;20044;-46
2022/03/18 02:12:30;;;;;;;5.05;3.33;;;5.40;63.00;;;;;;5052354;28;20044;-45
2022/03/18 02:14:57;;;;;;;5.65;3.58;;;5.30;63.00;;;;;;5045968;28;20676;-49
2022/03/18 02:17:24;;;;;;;4.18;3.40;;;5.30;63.10;;;;;;5050486;28;20041;-46
2022/03/18 02:19:51;;;;;;;6.25;3.38;;;5.30;63.10;;;;;;5070134;28;20450;-47
2022/03/18 02:22:20;;;;;;;4.05;3.05;;;5.30;63.10;;;;;;5059256;28;20045;-46
2022/03/18 02:24:53;;;;;;;7.80;3.80;;;5.30;63.10;;;;;;5050986;28;20041;-47
2022/03/18 02:27:22;;;;;;;5.88;4.25;;;5.30;63.20;;;;;;5056347;28;20036;-47
2022/03/18 02:29:50;;;;;;;5.05;3.67;;;5.20;63.80;;;;;;5070713;28;20048;-46
2022/03/18 02:32:18;;;;;;;5.50;4.20;;;5.20;63.20;;;;;;5072040;28;20052;-46
2022/03/18 02:34:50;;;;;;;5.10;3.92;;;5.20;63.10;;;;;;5051868;28;20110;-45
2022/03/18 02:37:16;;;;;;;5.40;4.03;;;5.20;63.20;;;;;;5058517;28;20107;-47
2022/03/18 02:39:43;;;;;;;8.32;3.83;;;5.10;63.00;;;;;;5067508;28;20432;-47
2022/03/18 02:42:10;;;;;;;4.55;3.53;;;4.90;62.90;;;;;;5051781;28;20546;-46
2022/03/18 02:44:39;;;;;;;5.70;3.50;;;5.10;63.10;;;;;;5049037;28;20488;-46
2022/03/18 02:47:06;;;;;;;4.35;3.28;;;5.10;63.20;;;;;;5056518;28;20098;-46
2022/03/18 02:49:33;;;;;;;4.35;3.17;;;5.10;63.10;;;;;;5069650;28;20040;-46
2022/03/18 02:51:59;;;;;;;5.13;3.42;;;5.00;63.10;;;;;;5050407;28;20036;-48
2022/03/18 02:54:26;;;;;;;5.60;3.38;;;5.00;63.10;;;;;;5046741;28;20037;-47
2022/03/18 02:56:53;;;;;;;3.35;3.03;;;4.90;63.10;;;;;;5064295;28;20079;-46
2022/03/18 02:59:20;;;;;;;4.35;3.20;;;5.00;63.10;;;;;;5071158;28;20040;-46
2022/03/18 03:01:47;;;;;;;6.18;3.45;;;4.90;63.00;;;;;;5067621;28;20050;-47
2022/03/18 03:04:15;;;;;;;4.47;3.28;;;4.90;63.10;;;;;;5060267;28;20419;-47
2022/03/18 03:09:27;;;;;;;5.38;3.58;;;4.90;63.10;;;;;;5055572;28;20066;-45
2022/03/18 03:11:54;;;;;;;6.45;3.10;;;4.80;63.00;;;;;;5042324;28;20492;-46
2022/03/18 03:14:21;;;;;;;7.07;3.70;;;4.80;63.10;;;;;;5057974;28;20033;-47
2022/03/18 03:16:48;;;;;;;5.03;2.90;;;4.80;63.10;;;;;;5062538;28;20408;-47
2022/03/18 03:19:15;;;;;;;7.07;4.43;;;4.80;63.20;;;;;;5071318;28;20052;-47
2022/03/18 03:21:42;;;;;;;5.80;2.70;;;4.70;63.10;;;;;;5058289;28;20041;-47
2022/03/18 03:24:08;;;;;;;3.90;3.40;;;4.70;63.10;;;;;;5067190;28;20450;-48
2022/03/18 03:26:38;;;;;;;4.20;3.33;;;4.70;63.20;;;;;;5070349;28;20471;-47
2022/03/18 03:29:05;;;;;;;4.88;3.38;;;4.70;63.20;;;;;;5069966;28;20041;-49
2022/03/18 03:31:32;;;;;;;4.60;3.22;;;4.60;63.10;;;;;;5043773;28;20454;-45
2022/03/18 03:33:58;;;;;;;5.10;3.28;;;4.60;63.20;;;;;;5068328;28;20041;-47
2022/03/18 03:36:28;;;;;;;4.32;3.35;;;4.60;63.10;;;;;;5070351;28;20059;-46
2022/03/18 03:38:57;;;;;;;5.72;3.40;;;4.50;63.00;;;;;;5051603;28;20040;-49
2022/03/18 03:41:23;;;;;;;5.63;3.55;;;4.50;63.00;;;;;;5057890;28;20036;-46
2022/03/18 03:43:50;;;;;;;7.28;3.38;;;4.50;63.00;;;;;;5070935;28;20121;-49
2022/03/18 03:46:17;;;;;;;4.55;4.03;;;4.50;63.10;;;;;;5070421;28;20504;-46
2022/03/18 03:48:44;;;;;;;6.15;4.57;;;4.40;63.00;;;;;;5054124;28;20044;-47
2022/03/18 03:51:13;;;;;;;6.22;3.90;;;4.40;63.10;;;;;;5056455;28;20040;-46
2022/03/18 03:53:46;;;;;;;5.47;3.25;;;4.40;63.10;;;;;;5058669;28;20052;-46
2022/03/18 03:56:13;;;;;;;6.00;3.67;;;4.40;63.20;;;;;;5070403;28;20158;-46
2022/03/18 03:58:40;;;;;;;6.07;3.85;;;4.40;63.30;;;;;;5058348;28;20108;-47
2022/03/18 04:01:09;;;;;;;6.85;3.97;;;4.30;63.50;;;;;;5062910;28;20052;-48
2022/03/18 04:03:39;;;;;;;5.68;3.97;;;4.30;63.50;;;;;;5070152;28;20062;-45
2022/03/18 04:06:06;;;;;;;7.63;4.10;;;4.30;63.40;;;;;;5052587;28;20091;-46
2022/03/18 04:08:32;;;;;;;6.53;3.50;;;4.50;63.40;;;;;;5047388;28;20033;-46
2022/03/18 04:10:59;;;;;;;5.43;4.13;;;4.30;63.20;;;;;;5056554;28;20059;-46
2022/03/18 04:13:27;;;;;;;5.88;4.25;;;4.30;63.30;;;;;;5070229;28;20041;-44
2022/03/18 04:15:55;;;;;;;7.95;4.20;;;4.30;63.30;;;;;;5059828;28;20075;-47
2022/03/18 04:18:22;;;;;;;5.97;4.20;;;4.20;63.50;;;;;;5046237;28;20141;-46
2022/03/18 04:20:48;;;;;;;6.80;4.15;;;4.20;64.00;;;;;;5063406;28;20056;-45
2022/03/18 04:23:20;;;;;;;8.10;4.78;;;4.20;64.50;;;;;;5065187;28;20504;-45
2022/03/18 04:25:51;;;;;;;8.07;4.40;;;4.20;64.90;;;;;;5058232;28;20049;-47
2022/03/18 04:28:18;;;;;;;6.05;4.05;;;4.30;64.90;;;;;;5046330;28;20033;-45
2022/03/18 04:30:45;;;;;;;6.72;4.15;;;4.30;64.60;;;;;;5061694;28;20136;-44
2022/03/18 04:33:15;;;;;;;6.63;4.53;;;4.30;64.30;;;;;;5070009;28;20377;-46
2022/03/18 04:35:41;;;;;;;6.88;4.00;;;4.30;64.20;;;;;;5067718;28;20041;-46
2022/03/18 04:41:01;;;;;;;6.38;4.22;;;4.30;63.90;;;;;;5039808;28;20045;-46
2022/03/18 04:43:30;;;;;;;4.22;3.78;;;4.30;63.80;;;;;;5050046;28;20064;-49
2022/03/18 04:45:59;;;;;;;5.53;3.80;;;4.20;63.50;;;;;;5042785;28;20128;-46
2022/03/18 04:48:26;;;;;;;7.22;3.55;;;4.20;63.40;;;;;;5040566;28;20045;-47
2022/03/18 04:50:57;;;;;;;4.50;3.78;;;4.20;63.40;;;;;;5049433;28;20033;-49
2022/03/18 04:53:24;;;;;;;4.05;3.40;;;4.20;63.30;;;;;;5050217;28;20515;-46
2022/03/18 04:55:51;;;;;;;4.68;4.10;;;4.10;63.90;;;;;;5034722;28;20065;-45
2022/03/18 04:58:18;;;;;;;4.30;3.42;;;4.10;63.20;;;;;;5049350;28;20049;-46
2022/03/18 05:00:45;;;;;;;3.83;3.30;;;4.10;63.20;;;;;;5049884;28;20051;-46
2022/03/18 05:03:12;;;;;;;5.63;3.83;;;4.10;63.80;;;;;;5046129;28;20075;-47
2022/03/18 05:05:44;;;;;;;5.05;3.80;;;4.00;63.10;;;;;;5032215;28;20405;-47
2022/03/18 05:08:11;;;;;;;6.20;4.30;;;4.00;63.20;;;;;;5045720;28;20041;-45
2022/03/18 05:10:38;;;;;;;9.15;4.03;;;4.00;63.20;;;;;;5040768;28;20095;-45
2022/03/18 05:13:07;;;;;;;6.45;4.72;;;3.90;63.30;;;;;;5029919;28;20501;-53
2022/03/18 05:15:33;;;;;;;5.28;3.97;;;3.90;63.70;;;;;;5024124;28;20055;-47
2022/03/18 05:18:00;;;;;;;6.32;3.85;;;3.90;63.80;;;;;;5049176;28;20124;-49
2022/03/18 05:20:36;;;;;;;6.55;4.30;;;3.90;63.70;;;;;;5049588;28;20071;-48
2022/03/18 05:23:05;;;;;;;6.05;4.10;;;3.90;63.50;;;;;;5026390;28;20046;-46
2022/03/18 05:25:33;;;;;;;5.55;4.05;;;3.90;63.30;;;;;;5029828;28;20049;-45
2022/03/18 05:28:00;;;;;;;4.97;3.97;;;3.80;63.20;;;;;;5049672;28;20489;-49
2022/03/18 05:30:26;;;;;;;7.90;4.00;;;3.90;63.30;;;;;;5041814;28;20493;-46
2022/03/18 05:32:56;;;;;;;5.15;3.70;;;3.80;63.20;;;;;;5032052;28;20041;-49
2022/03/18 05:35:23;;;;;;;8.73;3.92;;;3.80;63.20;;;;;;5041832;28;20040;-45
2022/03/18 05:37:50;;;;;;;5.95;3.65;;;3.80;63.20;;;;;;5047302;28;20116;-48
2022/03/18 05:40:25;;;;;;;6.05;3.67;;;3.80;63.20;;;;;;5032449;28;20503;-48
2022/03/18 05:42:54;;;;;;;4.82;3.45;;;3.80;63.30;;;;;;5032121;28;20091;-46
2022/03/18 05:45:28;;;;;;;6.40;3.78;;;3.70;63.30;;;;;;5031850;28;20099;-45
2022/03/18 05:47:57;;;;;;;4.28;3.65;;;3.70;63.30;;;;;;5026927;28;20042;-49
2022/03/18 05:50:26;;;;;;;4.88;3.75;;;3.70;63.30;;;;;;5022257;28;20440;-45
2022/03/18 05:52:54;;;;;;;4.80;3.88;;;3.70;63.30;;;;;;5038422;28;20040;-48
2022/03/18 05:55:24;;;;;;;6.25;4.18;;;3.70;63.30;;;;;;5027396;28;20034;-45
2022/03/18 05:57:53;;;;;;;6.28;4.00;;;3.60;63.30;;;;;;5023261;28;20504;-46
2022/03/18 06:00:21;;;;;;;8.70;3.80;;;3.60;63.50;;;;;;5028130;28;20045;-49
2022/03/18 06:02:53;;;;;;;5.45;3.78;;;3.60;63.40;;;;;;5030617;28;20057;-49
2022/03/18 06:05:20;;;;;;;4.75;4.28;;;3.60;63.40;;;;;;5024212;28;20572;-49
2022/03/18 06:07:46;;;;;;;5.45;4.25;;;3.60;63.50;;;;;;5014468;28;20049;-47
2022/03/18 06:13:05;;;;;;;5.07;4.50;;;3.60;63.50;;;;;;5035822;28;20044;-46
2022/03/18 06:15:32;;;;;;;7.07;4.68;;;3.60;63.60;;;;;;5022362;28;20045;-45
2022/03/18 06:18:02;;;;;;;7.85;5.28;;;3.60;63.60;;;;;;5013367;28;20125;-46
2022/03/18 06:20:38;;;;;;;5.80;4.05;;;3.60;63.70;;;;;;5030391;28;20115;-49
2022/03/18 06:23:09;;;;;;;8.02;3.65;;;3.60;63.70;;;;;;5060241;28;20052;-45
2022/03/18 06:25:38;;;;;;;6.10;4.50;;;3.60;63.70;;;;;;5051832;28;20087;-50
2022/03/18 06:28:05;;;;;;;6.50;3.97;;;3.70;63.90;;;;;;5052180;28;20049;-52
2022/03/18 06:30:34;;;;;;;5.88;4.05;;;3.70;64.00;;;;;;5036575;28;20072;-49
2022/03/18 06:33:02;;;;;;;6.53;4.43;;;3.70;64.20;;;;;;5047407;28;20056;-50
2022/03/18 06:35:32;;;;;;;5.32;4.13;;;3.70;64.40;;;;;;5050513;28;20456;-46
2022/03/18 06:37:59;;;;;;;7.50;4.72;;;3.70;64.40;;;;;;5033664;28;20081;-48
2022/03/18 06:40:26;;;;;;;7.95;4.78;;;3.70;64.40;;;;;;5030878;28;20409;-50
2022/03/18 06:42:56;;;;;;;5.88;4.80;;;3.80;64.50;;;;;;5049133;28;20053;-46
2022/03/18 06:45:23;;;;;;;10.07;5.13;;;3.80;64.40;;;;;;5050441;28;20053;-46
2022/03/18 06:47:49;;;;;;;9.40;6.20;;;3.80;64.40;;;;;;5033222;28;20566;-47
2022/03/18 06:50:16;;;;;;;8.65;5.20;;;3.90;64.50;;;;;;5033083;28;20065;-47
2022/03/18 06:52:44;;;;;;;7.78;5.32;;;3.90;65.10;;;;;;5034890;28;20819;-49
2022/03/18 06:55:11;;;;;;;7.97;5.75;;;3.90;64.50;;;;;;5049816;28;20037;-49
2022/03/18 06:57:38;;;;;;;8.80;5.28;;;4.00;64.50;;;;;;5035614;28;20046;-48
2022/03/18 07:00:10;;;;;;;8.75;5.72;;;4.00;64.40;;;;;;5034375;28;20151;-49
2022/03/18 07:02:37;;;;;;;11.02;6.03;;;4.00;64.50;;;;;;5050263;28;20574;-48
2022/03/18 07:05:05;;;;;;;13.15;6.72;;;4.00;64.50;;;;;;5050187;28;20552;-49
2022/03/18 07:07:33;;;;;;;7.47;6.18;;;4.10;64.60;;;;;;5037741;28;20041;-48
2022/03/18 07:10:00;;;;;;;9.18;6.55;;;4.10;64.50;;;;;;5044841;28;20497;-48
2022/03/18 07:12:27;;;;;;;11.82;6.28;;;4.10;64.50;;;;;;5033587;28;20749;-50
2022/03/18 07:14:56;;;;;;;10.75;6.63;;;4.20;64.60;;;;;;5047410;28;20037;-48
2022/03/18 07:20:12;;;;;;;11.80;7.80;;;4.20;64.80;;;;;;5042315;28;20083;-48
2022/03/18 07:22:40;;;;;;;11.98;7.50;;;4.30;64.80;;;;;;5027628;28;20041;-51
2022/03/18 07:25:08;;;;;;;12.52;7.45;;;4.30;64.90;;;;;;4999077;28;20050;-49
2022/03/18 07:27:35;;;;;;;10.73;6.97;;;4.30;65.10;;;;;;5022383;28;20620;-48
2022/03/18 07:30:05;;;;;;;11.88;8.32;;;4.30;65.20;;;;;;5010261;28;20054;-47
2022/03/18 07:32:33;;;;;;;12.00;8.30;;;4.40;65.50;;;;;;5022618;28;20130;-48
2022/03/18 07:35:00;;;;;;;12.35;8.55;;;4.50;65.60;;;;;;5010840;28;20049;-49
2022/03/18 07:37:28;;;;;;;13.68;9.30;;;4.60;65.70;;;;;;5024176;28;20064;-49
2022/03/18 07:39:55;;;;;;;14.15;8.70;;;4.60;65.70;;;;;;5015198;28;20120;-51
2022/03/18 07:42:22;;;;;;;12.68;8.25;;;4.60;65.90;;;;;;5015087;28;20088;-49
2022/03/18 07:44:49;;;;;;;14.90;8.38;;;4.70;66.10;;;;;;5008412;28;20290;-50
2022/03/18 07:47:15;;;;;;;12.00;8.32;;;4.80;66.10;;;;;;5020976;28;20049;-49
2022/03/18 07:49:42;;;;;;;14.30;9.02;;;4.80;66.10;;;;;;5024487;28;20034;-48
2022/03/18 07:52:09;;;;;;;13.07;8.48;;;4.90;66.40;;;;;;5013303;28;20042;-50
2022/03/18 07:54:36;;;;;;;13.57;8.25;;;5.00;66.90;;;;;;5009674;28;20084;-48
2022/03/18 07:57:02;;;;;;;11.68;7.57;;;5.10;67.40;;;;;;5026190;28;20044;-48
2022/03/18 07:59:29;;;;;;;17.02;8.93;;;5.10;67.60;;;;;;5028181;28;20041;-52
2022/03/18 08:01:56;;;;;;;12.55;7.80;;;5.20;67.80;;;;;;5014680;28;20570;-49
2022/03/18 08:04:23;;;;;;;17.20;8.07;;;5.30;68.10;;;;;;5018894;28;20505;-48
2022/03/18 08:06:50;;;;;;;11.48;7.90;;;5.40;68.50;;;;;;5023944;28;20041;-48
2022/03/18 08:09:16;;;;;;;10.75;7.68;;;5.50;68.70;;;;;;5017297;28;20088;-51
2022/03/18 08:11:46;;;;;;;12.75;7.22;;;5.60;68.80;;;;;;5015546;28;20046;-49
2022/03/18 08:14:13;;;;;;;10.93;6.57;;;5.70;69.10;;;;;;5022680;28;20567;-50
2022/03/18 08:16:39;;;;;;;10.70;6.40;;;5.90;69.30;;;;;;5018241;28;20461;-52
2022/03/18 08:19:06;;;;;;;11.90;7.43;;;6.00;69.50;;;;;;5005608;28;20046;-48
2022/03/18 08:21:34;;;;;;;13.15;6.45;;;6.10;69.80;;;;;;5021585;28;20054;-51
2022/03/18 08:24:02;;;;;;;9.82;5.82;;;6.30;70.00;;;;;;5038019;28;20082;-49
2022/03/18 08:26:29;;;;;;;11.10;5.15;;;6.40;70.00;;;;;;5010923;28;20050;-48
2022/03/18 08:28:57;;;;;;;11.38;4.43;;;6.60;69.90;;;;;;5013258;28;20045;-50
2022/03/18 08:31:24;;;;;;;7.53;3.45;;;6.70;69.80;;;;;;5013227;28;20050;-49
2022/03/18 08:33:51;;;;;;;11.40;3.90;;;6.90;69.50;;;;;;5026001;28;20045;-48
2022/03/18 08:36:19;;;;;;;7.82;3.55;;;7.00;69.30;;;;;;5016393;28;20112;-49
2022/03/18 08:38:45;;;;;;;7.25;3.90;;;7.20;69.10;;;;;;5023990;28;20045;-48
2022/03/18 08:41:12;;;;;;;7.53;3.60;;;7.40;68.80;;;;;;5011168;28;20118;-48
2022/03/18 08:43:40;;;;;;;6.43;3.25;;;7.50;68.50;;;;;;5026491;28;20049;-50
2022/03/18 08:46:06;;;;;;;9.63;3.72;;;7.70;68.30;;;;;;5011260;28;20073;-48
2022/03/18 08:48:33;;;;;;;7.85;3.65;;;7.80;68.50;;;;;;5017506;28;20127;-49
2022/03/18 08:51:00;;;;;;;8.93;3.15;;;8.00;67.70;;;;;;5014692;28;20111;-50
2022/03/18 08:53:27;;;;;;;8.07;3.80;;;8.10;67.40;;;;;;5034238;28;20037;-51
2022/03/18 08:55:56;;;;;;;8.50;3.88;;;8.20;67.40;;;;;;5008031;28;20037;-49
2022/03/18 08:58:24;;;;;;;8.43;4.20;;;8.40;67.00;;;;;;5018806;28;20052;-51
2022/03/18 09:00:51;;;;;;;7.47;4.35;;;8.60;66.50;;;;;;5010991;28;20050;-48
2022/03/18 09:03:18;;;;;;;12.95;4.38;;;8.70;66.00;;;;;;5026548;28;20049;-49
2022/03/18 09:05:47;;;;;;;11.68;5.20;;;8.80;65.50;;;;;;5019121;28;20390;-49
2022/03/18 09:08:14;;;;;;;11.38;5.25;;;8.90;65.20;;;;;;5031921;28;20088;-49
2022/03/18 09:10:41;;;;;;;7.93;4.22;;;9.00;64.80;;;;;;5008232;28;20088;-48
2022/03/18 09:13:08;;;;;;;10.02;5.65;;;9.10;64.50;;;;;;5021940;28;20041;-50
2022/03/18 09:15:35;;;;;;;9.70;5.88;;;9.20;64.30;;;;;;5006749;28;20037;-48
2022/03/18 09:18:02;;;;;;;13.27;6.22;;;9.30;64.00;;;;;;5027966;28;20063;-52
2022/03/18 09:20:28;;;;;;;10.15;5.88;;;9.40;63.50;;;;;;5007213;28;20560;-49
2022/03/18 09:22:55;;;;;;;12.70;5.68;;;9.50;63.20;;;;;;5032210;28;20053;-50
2022/03/18 09:25:22;;;;;;;8.32;5.82;;;9.60;62.90;;;;;;5005877;28;20072;-52
2022/03/18 09:27:51;;;;;;;8.48;5.38;;;9.60;62.70;;;;;;5023878;28;20099;-52
2022/03/18 09:30:39;;;;;;;7.50;5.10;;;9.70;62.40;;;;;;5011451;28;20075;-49
2022/03/18 09:33:06;;;;;;;11.35;5.57;;;9.80;62.00;;;;;;5018006;28;20053;-49
2022/03/18 09:35:33;;;;;;;9.95;5.40;;;9.90;62.00;;;;;;5003906;28;20464;-51
2022/03/18 09:38:00;;;;;;;10.88;5.70;;;10.00;62.00;;;;;;5026514;28;20142;-49
2022/03/18 09:40:27;;;;;;;5.50;4.25;;;10.00;61.60;;;;;;5008117;28;20456;-48
2022/03/18 09:43:14;;;;;;;6.90;4.07;;;10.10;61.40;;;;;;5019848;28;20125;-49
2022/03/18 09:45:41;;;;;;;6.03;4.22;;;10.20;61.20;;;;;;5009558;28;20037;-49
2022/03/18 09:48:17;;;;;;;10.00;5.57;;;10.30;61.20;;;;;;5022960;28;20053;-49
2022/03/18 09:50:44;;;;;;;8.90;4.95;;;10.40;61.10;;;;;;5008961;28;20104;-51
2022/03/18 09:53:15;;;;;;;11.18;4.90;;;10.40;60.90;;;;;;5023779;28;20552;-49
2022/03/18 09:55:44;;;;;;;13.65;4.90;;;10.50;60.80;;;;;;5007569;28;20091;-49
2022/03/18 09:58:13;;;;;;;7.43;4.53;;;10.60;61.00;;;;;;5020178;28;20103;-53
2022/03/18 10:00:40;;;;;;;7.60;3.67;;;10.60;60.60;;;;;;5012469;28;20095;-52
2022/03/18 10:03:18;;;;;;;8.38;4.78;;;10.70;60.40;;;;;;5021113;28;20041;-50
2022/03/18 10:05:59;;;;;;;6.25;3.58;;;10.80;59.90;;;;;;5006544;28;20037;-49
2022/03/18 10:08:47;;;;;;;7.10;3.83;;;10.90;59.50;;;;;;5029571;28;20107;-51
2022/03/18 10:11:14;;;;;;;6.40;4.20;;;11.00;59.10;;;;;;5015960;28;20137;-50
2022/03/18 10:14:02;;;;;;;5.88;3.55;;;11.00;59.60;;;;;;5006686;28;20413;-51
2022/03/18 10:16:46;;;;;;;8.93;4.45;;;11.10;59.00;;;;;;5018461;28;20033;-50
2022/03/18 10:19:17;;;;;;;9.02;4.50;;;11.20;58.70;;;;;;5003747;28;20136;-50
2022/03/18 10:22:02;;;;;;;11.20;4.83;;;11.30;59.10;;;;;;5019949;28;20072;-50
2022/03/18 10:24:35;;;;;;;10.13;5.32;;;11.40;58.80;;;;;;5003306;28;20048;-49
2022/03/18 10:27:23;;;;;;;10.65;5.15;;;11.40;58.80;;;;;;5019219;28;20401;-48
2022/03/18 10:29:53;;;;;;;11.85;6.13;;;11.50;58.60;;;;;;5010513;28;20057;-50
2022/03/18 10:32:25;;;;;;;8.00;4.85;;;11.60;58.80;;;;;;5023226;28;20051;-52
2022/03/18 10:37:45;;;;;;;10.10;5.07;;;11.70;58.10;;;;;;5020440;28;20060;-49
2022/03/18 10:40:13;;;;;;;9.05;5.10;;;11.80;58.00;;;;;;5041174;22;20041;-49
2022/03/18 10:42:41;;;;;;;8.48;4.65;;;11.90;57.90;;;;;;5041515;28;20045;-51
2022/03/18 10:45:08;;;;;;;9.95;4.80;;;11.90;58.30;;;;;;5044860;28;20036;-49
2022/03/18 10:47:41;;;;;;;8.63;4.07;;;12.00;57.40;;;;;;5035126;28;20033;-50
2022/03/18 10:50:16;;;;;;;12.07;4.93;;;12.10;56.80;;;;;;5058451;28;20385;-49
2022/03/18 10:52:48;;;;;;;7.03;4.45;;;12.10;56.90;;;;;;5052682;28;20041;-49
2022/03/18 10:55:26;;;;;;;6.63;4.13;;;12.20;56.60;;;;;;5055229;28;20143;-49
2022/03/18 10:57:54;;;;;;;6.88;4.40;;;12.30;56.60;;;;;;5068581;28;20106;-52
2022/03/18 11:00:26;;;;;;;8.20;3.92;;;12.30;56.80;;;;;;5068554;28;20075;-50
2022/03/18 11:02:59;;;;;;;8.35;5.35;;;12.40;56.50;;;;;;5051426;28;20037;-50
2022/03/18 11:05:31;;;;;;;7.80;4.22;;;12.50;56.20;;;;;;5064454;28;20036;-53
2022/03/18 11:08:07;;;;;;;8.48;3.67;;;12.50;55.90;;;;;;5066434;28;20045;-51
2022/03/18 11:13:52;;;;;;;7.00;3.80;;;12.70;55.70;;;;;;5051687;28;20040;-53
2022/03/18 11:16:28;;;;;;;9.75;3.83;;;12.70;55.50;;;;;;5044783;28;20049;-50
2022/03/18 11:18:58;;;;;;;6.45;3.10;;;12.80;55.30;;;;;;5047880;28;20049;-50
2022/03/18 11:21:35;;;;;;;8.88;3.92;;;12.80;55.30;;;;;;5050953;28;20048;-52
2022/03/18 11:24:32;;;;;;;4.97;2.78;;;12.90;54.70;;;;;;5069555;28;20044;-51
2022/03/18 11:27:04;;;;;;;9.23;3.95;;;12.90;55.30;;;;;;5068030;28;20125;-50
2022/03/18 11:29:33;;;;;;;4.07;3.45;;;13.00;54.50;;;;;;5051459;28;20512;-49
2022/03/18 11:32:11;;;;;;;9.63;4.05;;;13.10;54.80;;;;;;5069886;28;20115;-52
2022/03/18 11:34:50;;;;;;;6.38;3.28;;;13.10;53.70;;;;;;5070743;28;20450;-53
2022/03/18 11:37:21;;;;;;;4.90;3.15;;;13.20;53.90;;;;;;5063045;28;20828;-51
2022/03/18 11:39:48;;;;;;;5.28;2.90;;;13.20;53.80;;;;;;5045781;28;20045;-51
2022/03/18 11:42:20;;;;;;;5.18;2.97;;;13.30;53.60;;;;;;5062885;28;20090;-51
2022/03/18 11:44:58;;;;;;;6.88;3.83;;;13.40;52.80;;;;;;5070589;28;20098;-51
2022/03/18 11:47:31;;;;;;;6.47;3.50;;;13.40;52.30;;;;;;5055007;28;20049;-55
2022/03/18 11:50:38;;;;;;;6.68;3.30;;;13.50;53.00;;;;;;5055953;28;20090;-50
2022/03/18 11:53:06;;;;;;;5.45;2.72;;;13.60;51.50;;;;;;5052966;28;20045;-55
2022/03/18 11:55:33;;;;;;;4.97;2.95;;;13.60;52.60;;;;;;5055702;28;20044;-51
2022/03/18 11:58:30;;;;;;;4.40;2.90;;;13.70;52.60;;;;;;5054128;28;20067;-50
2022/03/18 12:00:57;;;;;;;8.52;3.30;;;13.70;51.40;;;;;;5068785;28;20123;-50
2022/03/18 12:03:29;;;;;;;7.00;3.47;;;13.80;52.00;;;;;;5069332;28;20067;-50
2022/03/18 12:05:59;;;;;;;5.32;3.30;;;13.80;51.40;;;;;;5070168;28;20507;-52
2022/03/18 12:08:55;;;;;;;5.60;2.95;;;13.90;51.60;;;;;;5052161;28;20044;-51
2022/03/18 12:11:31;;;;;;;6.30;2.78;;;13.90;50.30;;;;;;5070500;28;20036;-52
2022/03/18 12:14:04;;;;;;;5.07;3.22;;;14.10;49.90;;;;;;5069439;28;20033;-51
2022/03/18 12:16:31;;;;;;;4.50;2.22;;;14.00;50.40;;;;;;5051551;28;20064;-55
2022/03/18 12:19:11;;;;;;;4.22;2.30;;;14.10;50.20;;;;;;5063557;28;20043;-51
2022/03/18 12:21:42;;;;;;;4.32;2.40;;;14.20;49.70;;;;;;5070157;28;20044;-50
2022/03/18 12:24:11;;;;;;;5.38;2.13;;;14.20;49.10;;;;;;5069732;28;20045;-53
2022/03/18 12:26:40;;;;;;;4.78;2.35;;;14.30;49.20;;;;;;5049314;28;20458;-52
2022/03/18 12:29:23;;;;;;;3.65;2.03;;;14.30;49.40;;;;;;5054873;28;20033;-54
2022/03/18 12:32:03;;;;;;;4.72;2.28;;;14.40;49.50;;;;;;5070067;28;20128;-53
2022/03/18 12:34:47;;;;;;;9.00;2.50;;;14.40;48.60;;;;;;5062614;28;20038;-54
2022/03/18 12:37:23;;;;;;;3.97;2.58;;;14.50;47.90;;;;;;5054706;28;20037;-54
2022/03/18 12:40:04;;;;;;;5.88;2.42;;;14.60;48.40;;;;;;5070119;28;20385;-52
2022/03/18 12:42:52;;;;;;;5.10;2.20;;;14.60;47.60;;;;;;5049166;28;20076;-54
2022/03/18 12:45:32;;;;;;;5.93;2.58;;;14.70;47.70;;;;;;5053057;28;20048;-51
2022/03/18 12:48:13;;;;;;;5.63;2.50;;;14.80;46.70;;;;;;5074408;28;20056;-52
2022/03/18 12:51:05;;;;;;;4.60;2.42;;;14.80;47.10;;;;;;5073806;28;20039;-50
2022/03/18 12:53:35;;;;;;;2.42;1.90;;;14.90;46.60;;;;;;5043264;28;20033;-51
2022/03/18 12:56:22;;;;;;;3.20;1.90;;;14.90;47.70;;;;;;5051918;28;20131;-51
2022/03/18 12:58:54;;;;;;;5.82;2.28;;;15.00;47.30;;;;;;5072307;28;20040;-54
2022/03/18 13:01:54;;;;;;;4.18;2.20;;;15.10;47.40;;;;;;5061089;28;20037;-53
2022/03/18 13:04:21;;;;;;;3.40;1.85;;;15.20;46.00;;;;;;5045616;28;20090;-51
2022/03/18 13:06:54;;;;;;;3.58;2.55;;;15.20;46.50;;;;;;5065311;28;20130;-51
2022/03/18 13:09:21;;;;;;;2.53;2.13;;;15.30;45.70;;;;;;5067653;28;20041;-52
2022/03/18 13:11:51;;;;;;;4.90;2.13;;;15.40;46.20;;;;;;5047280;28;20912;-53
2022/03/18 13:14:34;;;;;;;4.05;2.45;;;15.40;45.20;;;;;;5061058;28;20043;-54
2022/03/18 13:17:04;;;;;;;4.80;2.28;;;15.50;44.80;;;;;;5037148;28;20048;-52
2022/03/18 13:19:38;;;;;;;4.10;2.28;;;15.60;45.90;;;;;;5045826;28;20515;-51
2022/03/18 13:22:06;;;;;;;4.60;2.47;;;15.70;45.30;;;;;;5046325;28;20041;-53
2022/03/18 13:24:33;;;;;;;5.57;2.25;;;15.80;45.60;;;;;;5040058;28;20043;-50
2022/03/18 13:27:00;;;;;;;4.03;2.08;;;15.90;45.70;;;;;;5037481;28;20516;-50
2022/03/18 13:32:50;;;;;;;5.35;2.50;;;15.90;45.50;;;;;;5045340;28;20048;-53